sensor_id;sensor_type;location;lat;lon;timestamp;pressure;altitude;pressure_sealevel;temperature;humidity
9141;BME280;46330;50.822;7.126;2023-01-29T00:02:05;102401.81;;;-4.07;100.00
9141;BME280;46330;50.822;7.126;2023-01-29T00:04:33;102396.50;;;-4.10;100.00
9141;BME280;46330;50.822;7.126;2023-01-29T00:07:01;102383.53;;;-4.13;100.00
9141;BME280;46330;50.822;7.126;2023-01-29T00:09:29;102383.66;;;-4.12;100.00
9141;BME280;46330;50.822;7.126;2023-01-29T00:11:59;102383.72;;;-4.10;100.00
9141;BME280;46330;50.822;7.126;2023-01-29T00:14:27;102388.06;;;-4.09;100.00
9141;BME280;46330;50.822;7.126;2023-01-29T00:16:54;102392.50;;;-4.07;100.00
9141;BME280;46330;50.822;7.126;2023-01-29T00:19:22;102394.75;;;-4.11;100.00
9141;BME280;46330;50.822;7.126;2023-01-29T00:21:50;102386.78;;;-4.16;100.00
9141;BME280;46330;50.822;7.126;2023-01-29T00:24:18;102386.47;;;-4.20;100.00
9141;BME280;46330;50.822;7.126;2023-01-29T00:26:46;102377.81;;;-4.22;100.00
9141;BME280;46330;50.822;7.126;2023-01-29T00:29:16;102380.84;;;-4.28;100.00
9141;BME280;46330;50.822;7.126;2023-01-29T00:31:45;102377.09;;;-4.33;100.00
9141;BME280;46330;50.822;7.126;2023-01-29T00:34:14;102368.75;;;-4.30;100.00
9141;BME280;46330;50.822;7.126;2023-01-29T00:36:42;102351.75;;;-4.30;100.00
9141;BME280;46330;50.822;7.126;2023-01-29T00:39:11;102347.44;;;-4.31;100.00
9141;BME280;46330;50.822;7.126;2023-01-29T00:41:39;102345.56;;;-4.33;100.00
9141;BME280;46330;50.822;7.126;2023-01-29T00:44:26;102344.34;;;-4.39;100.00
9141;BME280;46330;50.822;7.126;2023-01-29T00:47:10;102347.31;;;-4.32;100.00
9141;BME280;46330;50.822;7.126;2023-01-29T00:49:52;102335.63;;;-4.29;100.00
9141;BME280;46330;50.822;7.126;2023-01-29T00:52:21;102338.19;;;-4.29;100.00
9141;BME280;46330;50.822;7.126;2023-01-29T00:54:52;102340.53;;;-4.32;100.00
9141;BME280;46330;50.822;7.126;2023-01-29T00:57:20;102344.66;;;-4.34;100.00
9141;BME280;46330;50.822;7.126;2023-01-29T00:59:50;102339.66;;;-4.32;100.00
9141;BME280;46330;50.822;7.126;2023-01-29T01:02:18;102320.31;;;-4.29;100.00
9141;BME280;46330;50.822;7.126;2023-01-29T01:05:05;102328.78;;;-4.30;100.00
9141;BME280;46330;50.822;7.126;2023-01-29T01:07:36;102328.56;;;-4.33;100.00
9141;BME280;46330;50.822;7.126;2023-01-29T01:10:04;102333.88;;;-4.30;100.00
9141;BME280;46330;50.822;7.126;2023-01-29T01:12:48;102334.75;;;-4.29;100.00
9141;BME280;46330;50.822;7.126;2023-01-29T01:15:19;102333.09;;;-4.29;100.00
9141;BME280;46330;50.822;7.126;2023-01-29T01:17:47;102334.75;;;-4.29;100.00
9141;BME280;46330;50.822;7.126;2023-01-29T01:20:15;102322.66;;;-4.32;100.00
9141;BME280;46330;50.822;7.126;2023-01-29T01:22:43;102333.09;;;-4.29;100.00
9141;BME280;46330;50.822;7.126;2023-01-29T01:25:11;102339.28;;;-4.25;100.00
9141;BME280;46330;50.822;7.126;2023-01-29T01:27:39;102332.41;;;-4.26;100.00
9141;BME280;46330;50.822;7.126;2023-01-29T01:30:09;102332.09;;;-4.31;100.00
9141;BME280;46330;50.822;7.126;2023-01-29T01:32:39;102340.44;;;-4.33;100.00
9141;BME280;46330;50.822;7.126;2023-01-29T01:35:08;102334.34;;;-4.36;100.00
9141;BME280;46330;50.822;7.126;2023-01-29T01:37:36;102343.56;;;-4.38;100.00
9141;BME280;46330;50.822;7.126;2023-01-29T01:40:07;102343.38;;;-4.41;100.00
9141;BME280;46330;50.822;7.126;2023-01-29T01:42:38;102331.97;;;-4.46;100.00
9141;BME280;46330;50.822;7.126;2023-01-29T01:45:22;102338.63;;;-4.48;100.00
9141;BME280;46330;50.822;7.126;2023-01-29T01:47:56;102334.53;;;-4.46;100.00
9141;BME280;46330;50.822;7.126;2023-01-29T01:50:28;102332.75;;;-4.47;100.00
9141;BME280;46330;50.822;7.126;2023-01-29T01:53:02;102344.81;;;-4.44;100.00
9141;BME280;46330;50.822;7.126;2023-01-29T01:55:31;102340.59;;;-4.44;100.00
9141;BME280;46330;50.822;7.126;2023-01-29T01:58:04;102348.16;;;-4.45;100.00
9141;BME280;46330;50.822;7.126;2023-01-29T02:00:33;102344.25;;;-4.40;100.00
9141;BME280;46330;50.822;7.126;2023-01-29T02:03:03;102343.56;;;-4.38;100.00
9141;BME280;46330;50.822;7.126;2023-01-29T02:05:49;102338.25;;;-4.41;100.00
9141;BME280;46330;50.822;7.126;2023-01-29T02:08:43;102337.38;;;-4.41;100.00
9141;BME280;46330;50.822;7.126;2023-01-29T02:11:34;102336.38;;;-4.43;100.00
9141;BME280;46330;50.822;7.126;2023-01-29T02:14:03;102327.97;;;-4.42;100.00
9141;BME280;46330;50.822;7.126;2023-01-29T02:16:32;102321.38;;;-4.39;100.00
9141;BME280;46330;50.822;7.126;2023-01-29T02:19:06;102315.06;;;-4.44;100.00
9141;BME280;46330;50.822;7.126;2023-01-29T02:21:51;102319.09;;;-4.47;100.00
9141;BME280;46330;50.822;7.126;2023-01-29T02:27:26;102323.09;;;-4.51;100.00
9141;BME280;46330;50.822;7.126;2023-01-29T02:30:28;102329.41;;;-4.46;100.00
9141;BME280;46330;50.822;7.126;2023-01-29T02:33:04;102326.66;;;-4.49;100.00
9141;BME280;46330;50.822;7.126;2023-01-29T02:35:42;102331.75;;;-4.49;100.00
9141;BME280;46330;50.822;7.126;2023-01-29T02:38:18;102327.50;;;-4.48;100.00
9141;BME280;46330;50.822;7.126;2023-01-29T02:40:54;102327.44;;;-4.50;100.00
9141;BME280;46330;50.822;7.126;2023-01-29T02:43:29;102332.31;;;-4.53;100.00
9141;BME280;46330;50.822;7.126;2023-01-29T02:46:10;102328.59;;;-4.58;100.00
9141;BME280;46330;50.822;7.126;2023-01-29T02:48:48;102327.56;;;-4.60;100.00
9141;BME280;46330;50.822;7.126;2023-01-29T02:51:23;102325.81;;;-4.61;100.00
9141;BME280;46330;50.822;7.126;2023-01-29T02:53:58;102324.03;;;-4.62;100.00
9141;BME280;46330;50.822;7.126;2023-01-29T02:56:31;102327.16;;;-4.66;100.00
9141;BME280;46330;50.822;7.126;2023-01-29T02:59:05;102347.38;;;-4.69;100.00
9141;BME280;46330;50.822;7.126;2023-01-29T03:01:39;102349.22;;;-4.66;100.00
9141;BME280;46330;50.822;7.126;2023-01-29T03:04:15;102347.56;;;-4.66;100.00
9141;BME280;46330;50.822;7.126;2023-01-29T03:06:48;102353.03;;;-4.73;100.00
9141;BME280;46330;50.822;7.126;2023-01-29T03:09:23;102354.50;;;-4.76;100.00
9141;BME280;46330;50.822;7.126;2023-01-29T03:12:01;102358.50;;;-4.80;100.00
9141;BME280;46330;50.822;7.126;2023-01-29T03:14:49;102368.28;;;-4.86;100.00
9141;BME280;46330;50.822;7.126;2023-01-29T03:17:50;102374.25;;;-4.85;100.00
9141;BME280;46330;50.822;7.126;2023-01-29T03:20:23;102369.72;;;-4.90;100.00
9141;BME280;46330;50.822;7.126;2023-01-29T03:22:57;102370.41;;;-4.92;100.00
9141;BME280;46330;50.822;7.126;2023-01-29T03:25:29;102371.72;;;-4.97;100.00
9141;BME280;46330;50.822;7.126;2023-01-29T03:28:17;102377.63;;;-4.98;100.00
9141;BME280;46330;50.822;7.126;2023-01-29T03:31:07;102381.72;;;-5.00;100.00
9141;BME280;46330;50.822;7.126;2023-01-29T03:34:00;102372.75;;;-5.07;100.00
9141;BME280;46330;50.822;7.126;2023-01-29T03:37:06;102368.22;;;-5.11;100.00
9141;BME280;46330;50.822;7.126;2023-01-29T03:39:35;102377.09;;;-5.17;100.00
9141;BME280;46330;50.822;7.126;2023-01-29T03:42:12;102367.66;;;-5.18;100.00
9141;BME280;46330;50.822;7.126;2023-01-29T03:45:01;102354.03;;;-5.19;100.00
9141;BME280;46330;50.822;7.126;2023-01-29T03:47:46;102353.03;;;-5.21;100.00
9141;BME280;46330;50.822;7.126;2023-01-29T03:50:32;102358.81;;;-5.23;100.00
9141;BME280;46330;50.822;7.126;2023-01-29T03:53:18;102348.94;;;-5.30;100.00
9141;BME280;46330;50.822;7.126;2023-01-29T03:56:16;102354.94;;;-5.30;100.00
9141;BME280;46330;50.822;7.126;2023-01-29T03:59:13;102341.53;;;-5.27;100.00
9141;BME280;46330;50.822;7.126;2023-01-29T04:02:14;102344.84;;;-5.17;100.00
9141;BME280;46330;50.822;7.126;2023-01-29T04:05:18;102341.84;;;-5.11;100.00
9141;BME280;46330;50.822;7.126;2023-01-29T04:08:13;102343.38;;;-5.13;100.00
9141;BME280;46330;50.822;7.126;2023-01-29T04:10:55;102339.97;;;-5.14;100.00
9141;BME280;46330;50.822;7.126;2023-01-29T04:13:26;102354.25;;;-5.16;100.00
9141;BME280;46330;50.822;7.126;2023-01-29T04:16:01;102363.69;;;-5.15;100.00
9141;BME280;46330;50.822;7.126;2023-01-29T04:18:54;102361.00;;;-5.16;100.00
9141;BME280;46330;50.822;7.126;2023-01-29T04:21:39;102351.47;;;-5.19;100.00
9141;BME280;46330;50.822;7.126;2023-01-29T04:24:28;102354.03;;;-5.19;100.00
9141;BME280;46330;50.822;7.126;2023-01-29T04:27:26;102350.28;;;-5.24;100.00
9141;BME280;46330;50.822;7.126;2023-01-29T04:30:26;102338.19;;;-5.26;100.00
9141;BME280;46330;50.822;7.126;2023-01-29T04:33:08;102335.66;;;-5.26;100.00
9141;BME280;46330;50.822;7.126;2023-01-29T04:36:10;102321.22;;;-5.26;100.00
9141;BME280;46330;50.822;7.126;2023-01-29T04:39:07;102318.34;;;-5.30;100.00
9141;BME280;46330;50.822;7.126;2023-01-29T04:42:16;102320.44;;;-5.25;100.00
9141;BME280;46330;50.822;7.126;2023-01-29T04:44:59;102304.63;;;-5.32;100.00
9141;BME280;46330;50.822;7.126;2023-01-29T04:47:36;102307.41;;;-5.29;100.00
9141;BME280;46330;50.822;7.126;2023-01-29T04:50:13;102293.53;;;-5.33;100.00
9141;BME280;46330;50.822;7.126;2023-01-29T04:55:44;102314.03;;;-5.31;100.00
9141;BME280;46330;50.822;7.126;2023-01-29T04:58:31;102316.34;;;-5.34;100.00
9141;BME280;46330;50.822;7.126;2023-01-29T05:01:05;102314.03;;;-5.31;100.00
9141;BME280;46330;50.822;7.126;2023-01-29T05:03:41;102318.34;;;-5.30;100.00
9141;BME280;46330;50.822;7.126;2023-01-29T05:06:19;102329.31;;;-5.31;100.00
9141;BME280;46330;50.822;7.126;2023-01-29T05:08:50;102320.91;;;-5.30;100.00
9141;BME280;46330;50.822;7.126;2023-01-29T05:11:31;102315.69;;;-5.32;100.00
9141;BME280;46330;50.822;7.126;2023-01-29T05:14:13;102306.06;;;-5.36;100.00
9141;BME280;46330;50.822;7.126;2023-01-29T05:17:06;102297.31;;;-5.39;100.00
9141;BME280;46330;50.822;7.126;2023-01-29T05:19:48;102302.50;;;-5.38;100.00
9141;BME280;46330;50.822;7.126;2023-01-29T05:22:19;102304.97;;;-5.39;100.00
9141;BME280;46330;50.822;7.126;2023-01-29T05:24:51;102292.22;;;-5.39;100.00
9141;BME280;46330;50.822;7.126;2023-01-29T05:27:31;102298.28;;;-5.37;100.00
9141;BME280;46330;50.822;7.126;2023-01-29T05:30:26;102316.13;;;-5.37;100.00
9141;BME280;46330;50.822;7.126;2023-01-29T05:32:56;102288.22;;;-5.36;100.00
9141;BME280;46330;50.822;7.126;2023-01-29T05:35:36;102299.53;;;-5.32;100.00
9141;BME280;46330;50.822;7.126;2023-01-29T05:38:17;102298.41;;;-5.36;100.00
9141;BME280;46330;50.822;7.126;2023-01-29T05:41:10;102292.97;;;-5.40;100.00
9141;BME280;46330;50.822;7.126;2023-01-29T05:44:08;102292.88;;;-5.42;100.00
9141;BME280;46330;50.822;7.126;2023-01-29T05:46:45;102294.63;;;-5.41;100.00
9141;BME280;46330;50.822;7.126;2023-01-29T05:49:28;102298.97;;;-5.40;100.00
9141;BME280;46330;50.822;7.126;2023-01-29T05:52:13;102292.88;;;-5.42;100.00
9141;BME280;46330;50.822;7.126;2023-01-29T05:54:45;102279.03;;;-5.46;100.00
9141;BME280;46330;50.822;7.126;2023-01-29T05:57:21;102276.59;;;-5.44;100.00
9141;BME280;46330;50.822;7.126;2023-01-29T06:00:08;102282.78;;;-5.40;100.00
9141;BME280;46330;50.822;7.126;2023-01-29T06:02:42;102272.50;;;-5.42;100.00
9141;BME280;46330;50.822;7.126;2023-01-29T06:05:15;102277.81;;;-5.39;100.00
9141;BME280;46330;50.822;7.126;2023-01-29T06:07:54;102282.44;;;-5.33;100.00
9141;BME280;46330;50.822;7.126;2023-01-29T06:10:25;102284.78;;;-5.36;100.00
9141;BME280;46330;50.822;7.126;2023-01-29T06:12:56;102289.97;;;-5.35;100.00
9141;BME280;46330;50.822;7.126;2023-01-29T06:15:29;102295.97;;;-5.34;100.00
9141;BME280;46330;50.822;7.126;2023-01-29T06:18:06;102299.41;;;-5.34;100.00
9141;BME280;46330;50.822;7.126;2023-01-29T06:20:35;102300.16;;;-5.35;100.00
9141;BME280;46330;50.822;7.126;2023-01-29T06:23:05;102300.16;;;-5.35;100.00
9141;BME280;46330;50.822;7.126;2023-01-29T06:25:37;102291.75;;;-5.34;100.00
9141;BME280;46330;50.822;7.126;2023-01-29T06:28:23;102298.63;;;-5.33;100.00
9141;BME280;46330;50.822;7.126;2023-01-29T06:31:00;102298.72;;;-5.31;100.00
9141;BME280;46330;50.822;7.126;2023-01-29T06:33:57;102296.97;;;-5.32;100.00
9141;BME280;46330;50.822;7.126;2023-01-29T06:36:27;102297.84;;;-5.32;100.00
9141;BME280;46330;50.822;7.126;2023-01-29T06:39:06;102284.09;;;-5.34;100.00
9141;BME280;46330;50.822;7.126;2023-01-29T06:41:38;102296.41;;;-5.40;100.00
9141;BME280;46330;50.822;7.126;2023-01-29T06:44:09;102288.66;;;-5.42;100.00
9141;BME280;46330;50.822;7.126;2023-01-29T06:46:46;102296.22;;;-5.43;100.00
9141;BME280;46330;50.822;7.126;2023-01-29T06:49:22;102299.88;;;-5.39;100.00
9141;BME280;46330;50.822;7.126;2023-01-29T06:51:54;102324.56;;;-5.38;100.00
9141;BME280;46330;50.822;7.126;2023-01-29T06:54:29;102317.91;;;-5.36;100.00
9141;BME280;46330;50.822;7.126;2023-01-29T06:57:11;102338.53;;;-5.33;100.00
9141;BME280;46330;50.822;7.126;2023-01-29T06:59:45;102342.28;;;-5.28;100.00
9141;BME280;46330;50.822;7.126;2023-01-29T07:02:20;102346.72;;;-5.26;100.00
9141;BME280;46330;50.822;7.126;2023-01-29T07:04:57;102360.56;;;-5.22;100.00
9141;BME280;46330;50.822;7.126;2023-01-29T07:07:34;102359.13;;;-5.19;100.00
9141;BME280;46330;50.822;7.126;2023-01-29T07:10:04;102354.38;;;-5.14;100.00
9141;BME280;46330;50.822;7.126;2023-01-29T07:12:37;102356.56;;;-5.07;100.00
9141;BME280;46330;50.822;7.126;2023-01-29T07:15:13;102344.13;;;-5.03;100.00
9141;BME280;46330;50.822;7.126;2023-01-29T07:18:05;102342.56;;;-5.01;100.00
9141;BME280;46330;50.822;7.126;2023-01-29T07:20:47;102333.59;;;-4.96;100.00
9141;BME280;46330;50.822;7.126;2023-01-29T07:23:15;102318.72;;;-4.90;100.00
9141;BME280;46330;50.822;7.126;2023-01-29T07:25:43;102330.88;;;-4.85;100.00
9141;BME280;46330;50.822;7.126;2023-01-29T07:28:11;102333.56;;;-4.84;100.00
9141;BME280;46330;50.822;7.126;2023-01-29T07:30:39;102334.94;;;-4.76;100.00
9141;BME280;46330;50.822;7.126;2023-01-29T07:33:08;102335.06;;;-4.74;100.00
9141;BME280;46330;50.822;7.126;2023-01-29T07:35:37;102332.59;;;-4.73;100.00
9141;BME280;46330;50.822;7.126;2023-01-29T07:38:08;102346.00;;;-4.64;100.00
9141;BME280;46330;50.822;7.126;2023-01-29T07:40:36;102350.97;;;-4.54;100.00
9141;BME280;46330;50.822;7.126;2023-01-29T07:43:05;102333.97;;;-4.53;100.00
9141;BME280;46330;50.822;7.126;2023-01-29T07:45:35;102340.47;;;-4.45;100.00
9141;BME280;46330;50.822;7.126;2023-01-29T07:48:04;102345.84;;;-4.42;100.00
9141;BME280;46330;50.822;7.126;2023-01-29T07:50:33;102341.78;;;-4.39;100.00
9141;BME280;46330;50.822;7.126;2023-01-29T07:53:02;102340.44;;;-4.33;100.00
9141;BME280;46330;50.822;7.126;2023-01-29T07:55:31;102337.41;;;-4.28;100.00
9141;BME280;46330;50.822;7.126;2023-01-29T07:58:01;102336.84;;;-4.24;100.00
9141;BME280;46330;50.822;7.126;2023-01-29T08:00:30;102328.13;;;-4.14;100.00
9141;BME280;46330;50.822;7.126;2023-01-29T08:03:02;102340.72;;;-4.04;100.00
9141;BME280;46330;50.822;7.126;2023-01-29T08:05:30;102332.19;;;-4.05;100.00
9141;BME280;46330;50.822;7.126;2023-01-29T08:07:58;102335.16;;;-3.99;100.00
9141;BME280;46330;50.822;7.126;2023-01-29T08:10:35;102333.56;;;-3.97;100.00
9141;BME280;46330;50.822;7.126;2023-01-29T08:13:03;102330.25;;;-3.96;100.00
9141;BME280;46330;50.822;7.126;2023-01-29T08:15:33;102331.09;;;-3.95;100.00
9141;BME280;46330;50.822;7.126;2023-01-29T08:18:05;102315.69;;;-3.97;100.00
9141;BME280;46330;50.822;7.126;2023-01-29T08:20:32;102315.00;;;-3.94;100.00
9141;BME280;46330;50.822;7.126;2023-01-29T08:23:01;102330.16;;;-3.84;100.00
9141;BME280;46330;50.822;7.126;2023-01-29T08:25:30;102342.63;;;-3.75;100.00
9141;BME280;46330;50.822;7.126;2023-01-29T08:28:00;102342.84;;;-3.72;100.00
9141;BME280;46330;50.822;7.126;2023-01-29T08:30:30;102335.47;;;-3.68;100.00
9141;BME280;46330;50.822;7.126;2023-01-29T08:32:59;102330.16;;;-3.71;100.00
9141;BME280;46330;50.822;7.126;2023-01-29T08:35:27;102327.91;;;-3.66;100.00
9141;BME280;46330;50.822;7.126;2023-01-29T08:37:56;102334.97;;;-3.62;100.00
9141;BME280;46330;50.822;7.126;2023-01-29T08:40:25;102331.72;;;-3.60;100.00
9141;BME280;46330;50.822;7.126;2023-01-29T08:42:56;102341.09;;;-3.47;100.00
9141;BME280;46330;50.822;7.126;2023-01-29T08:45:29;102333.72;;;-3.43;100.00
9141;BME280;46330;50.822;7.126;2023-01-29T08:47:58;102333.22;;;-3.37;100.00
9141;BME280;46330;50.822;7.126;2023-01-29T08:50:26;102317.69;;;-3.40;100.00
9141;BME280;46330;50.822;7.126;2023-01-29T08:52:57;102320.69;;;-3.33;100.00
9141;BME280;46330;50.822;7.126;2023-01-29T08:55:25;102320.31;;;-3.26;100.00
9141;BME280;46330;50.822;7.126;2023-01-29T08:57:53;102322.47;;;-3.18;100.00
9141;BME280;46330;50.822;7.126;2023-01-29T09:00:23;102326.19;;;-3.13;100.00
9141;BME280;46330;50.822;7.126;2023-01-29T09:02:52;102325.41;;;-3.12;100.00
9141;BME280;46330;50.822;7.126;2023-01-29T09:05:20;102319.28;;;-3.14;100.00
9141;BME280;46330;50.822;7.126;2023-01-29T09:07:48;102321.66;;;-3.17;100.00
9141;BME280;46330;50.822;7.126;2023-01-29T09:10:18;102312.63;;;-3.12;100.00
9141;BME280;46330;50.822;7.126;2023-01-29T09:12:46;102321.66;;;-3.17;100.00
9141;BME280;46330;50.822;7.126;2023-01-29T09:15:14;102313.88;;;-3.06;100.00
9141;BME280;46330;50.822;7.126;2023-01-29T09:17:43;102316.63;;;-3.03;100.00
9141;BME280;46330;50.822;7.126;2023-01-29T09:20:12;102308.22;;;-2.87;100.00
9141;BME280;46330;50.822;7.126;2023-01-29T09:22:40;102318.13;;;-2.79;100.00
9141;BME280;46330;50.822;7.126;2023-01-29T09:25:08;102326.84;;;-2.62;100.00
9141;BME280;46330;50.822;7.126;2023-01-29T09:27:37;102329.97;;;-2.53;100.00
9141;BME280;46330;50.822;7.126;2023-01-29T09:30:06;102320.78;;;-2.49;100.00
9141;BME280;46330;50.822;7.126;2023-01-29T09:32:34;102316.34;;;-2.52;100.00
9141;BME280;46330;50.822;7.126;2023-01-29T09:35:23;102310.00;;;-2.58;100.00
9141;BME280;46330;50.822;7.126;2023-01-29T09:37:51;102310.38;;;-2.52;100.00
9141;BME280;46330;50.822;7.126;2023-01-29T09:40:24;102309.44;;;-2.40;100.00
9141;BME280;46330;50.822;7.126;2023-01-29T09:42:57;102296.69;;;-2.38;100.00
9141;BME280;46330;50.822;7.126;2023-01-29T09:45:27;102297.50;;;-2.25;100.00
9141;BME280;46330;50.822;7.126;2023-01-29T09:47:58;102302.09;;;-2.19;100.00
9141;BME280;46330;50.822;7.126;2023-01-29T09:50:30;102277.53;;;-2.15;100.00
9141;BME280;46330;50.822;7.126;2023-01-29T09:53:02;102286.00;;;-2.02;100.00
9141;BME280;46330;50.822;7.126;2023-01-29T09:55:36;102289.63;;;-1.98;100.00
9141;BME280;46330;50.822;7.126;2023-01-29T09:58:11;102286.53;;;-1.93;100.00
9141;BME280;46330;50.822;7.126;2023-01-29T10:00:49;102283.72;;;-1.97;100.00
9141;BME280;46330;50.822;7.126;2023-01-29T10:03:31;102273.38;;;-1.84;100.00
9141;BME280;46330;50.822;7.126;2023-01-29T10:06:24;102272.72;;;-1.80;100.00
9141;BME280;46330;50.822;7.126;2023-01-29T10:09:20;102262.72;;;-1.61;100.00
9141;BME280;46330;50.822;7.126;2023-01-29T10:12:02;102246.75;;;-1.41;99.84
9141;BME280;46330;50.822;7.126;2023-01-29T10:14:38;102248.53;;;-1.24;98.94
9141;BME280;46330;50.822;7.126;2023-01-29T10:17:25;102242.94;;;-1.17;97.87
9141;BME280;46330;50.822;7.126;2023-01-29T10:20:09;102231.00;;;-1.16;97.24
9141;BME280;46330;50.822;7.126;2023-01-29T10:22:54;102227.03;;;-1.26;95.22
9141;BME280;46330;50.822;7.126;2023-01-29T10:25:30;102232.69;;;-1.00;95.42
9141;BME280;46330;50.822;7.126;2023-01-29T10:28:01;102230.66;;;-0.90;95.62
9141;BME280;46330;50.822;7.126;2023-01-29T10:30:32;102221.53;;;-0.85;94.06
9141;BME280;46330;50.822;7.126;2023-01-29T10:33:02;102231.72;;;-0.86;93.32
9141;BME280;46330;50.822;7.126;2023-01-29T10:35:33;102235.16;;;-0.86;92.41
9141;BME280;46330;50.822;7.126;2023-01-29T10:38:17;102245.75;;;-0.64;93.15
9141;BME280;46330;50.822;7.126;2023-01-29T10:40:55;102246.16;;;-0.72;92.02
9141;BME280;46330;50.822;7.126;2023-01-29T10:43:32;102241.50;;;-0.63;90.86
9141;BME280;46330;50.822;7.126;2023-01-29T10:46:12;102234.31;;;-0.52;89.46
9141;BME280;46330;50.822;7.126;2023-01-29T10:48:56;102237.44;;;-0.42;88.11
9141;BME280;46330;50.822;7.126;2023-01-29T10:51:39;102224.03;;;-0.52;87.40
9141;BME280;46330;50.822;7.126;2023-01-29T10:54:24;102233.06;;;-0.27;88.04
9141;BME280;46330;50.822;7.126;2023-01-29T10:57:04;102227.28;;;-0.23;86.47
9141;BME280;46330;50.822;7.126;2023-01-29T10:59:47;102224.66;;;-0.40;85.71
9141;BME280;46330;50.822;7.126;2023-01-29T11:02:19;102211.63;;;-0.27;86.53
9141;BME280;46330;50.822;7.126;2023-01-29T11:04:48;102209.00;;;-0.11;86.53
9141;BME280;46330;50.822;7.126;2023-01-29T11:07:18;102203.31;;;-0.22;86.59
9141;BME280;46330;50.822;7.126;2023-01-29T11:09:55;102194.81;;;-0.21;86.59
9141;BME280;46330;50.822;7.126;2023-01-29T11:12:26;102192.69;;;-0.29;86.02
9141;BME280;46330;50.822;7.126;2023-01-29T11:15:00;102190.84;;;-0.32;86.58
9141;BME280;46330;50.822;7.126;2023-01-29T11:17:29;102188.13;;;-0.35;86.19
9141;BME280;46330;50.822;7.126;2023-01-29T11:19:57;102189.66;;;-0.38;87.36
9141;BME280;46330;50.822;7.126;2023-01-29T11:22:26;102184.56;;;-0.37;87.19
9141;BME280;46330;50.822;7.126;2023-01-29T11:25:15;102170.94;;;-0.36;86.51
9141;BME280;46330;50.822;7.126;2023-01-29T11:27:44;102167.31;;;-0.22;85.25
9141;BME280;46330;50.822;7.126;2023-01-29T11:30:21;102163.50;;;-0.12;85.76
9141;BME280;46330;50.822;7.126;2023-01-29T11:32:59;102155.81;;;0.06;85.40
9141;BME280;46330;50.822;7.126;2023-01-29T11:35:33;102152.22;;;-0.16;84.46
9141;BME280;46330;50.822;7.126;2023-01-29T11:38:07;102145.47;;;-0.14;84.28
9141;BME280;46330;50.822;7.126;2023-01-29T11:40:39;102144.59;;;0.23;84.89
9141;BME280;46330;50.822;7.126;2023-01-29T11:43:21;102141.19;;;0.41;84.30
9141;BME280;46330;50.822;7.126;2023-01-29T11:45:50;102143.88;;;0.62;82.02
9141;BME280;46330;50.822;7.126;2023-01-29T11:48:22;102136.03;;;0.59;82.04
9141;BME280;46330;50.822;7.126;2023-01-29T11:50:59;102133.31;;;0.56;81.86
9141;BME280;46330;50.822;7.126;2023-01-29T11:53:40;102120.28;;;0.34;81.80
9141;BME280;46330;50.822;7.126;2023-01-29T11:56:20;102117.97;;;0.40;82.21
9141;BME280;46330;50.822;7.126;2023-01-29T11:58:50;102113.84;;;0.63;82.75
9141;BME280;46330;50.822;7.126;2023-01-29T12:01:29;102104.56;;;0.85;82.42
9141;BME280;46330;50.822;7.126;2023-01-29T12:03:58;102098.72;;;0.89;82.37
9141;BME280;46330;50.822;7.126;2023-01-29T12:06:32;102094.06;;;1.21;79.89
9141;BME280;46330;50.822;7.126;2023-01-29T12:09:08;102097.28;;;1.36;79.17
9141;BME280;46330;50.822;7.126;2023-01-29T12:11:43;102087.47;;;1.48;77.07
9141;BME280;46330;50.822;7.126;2023-01-29T12:14:23;102087.28;;;1.86;75.77
9141;BME280;46330;50.822;7.126;2023-01-29T12:16:56;102084.84;;;1.69;75.78
9141;BME280;46330;50.822;7.126;2023-01-29T12:19:28;102085.22;;;2.00;75.29
9141;BME280;46330;50.822;7.126;2023-01-29T12:22:03;102089.16;;;1.47;76.24
9141;BME280;46330;50.822;7.126;2023-01-29T12:24:37;102085.13;;;1.54;76.98
9141;BME280;46330;50.822;7.126;2023-01-29T12:27:14;102078.31;;;1.34;77.82
9141;BME280;46330;50.822;7.126;2023-01-29T12:29:48;102069.44;;;1.27;77.21
9141;BME280;46330;50.822;7.126;2023-01-29T12:32:26;102071.38;;;1.33;77.61
9141;BME280;46330;50.822;7.126;2023-01-29T12:35:01;102054.09;;;1.73;76.70
9141;BME280;46330;50.822;7.126;2023-01-29T12:37:37;102045.88;;;1.61;75.69
9141;BME280;46330;50.822;7.126;2023-01-29T12:40:12;102042.00;;;1.72;75.85
9141;BME280;46330;50.822;7.126;2023-01-29T12:42:46;102031.47;;;1.88;75.18
9141;BME280;46330;50.822;7.126;2023-01-29T12:45:16;102019.91;;;2.01;74.92
9141;BME280;46330;50.822;7.126;2023-01-29T12:47:47;102009.78;;;1.83;74.05
9141;BME280;46330;50.822;7.126;2023-01-29T12:50:18;102010.72;;;1.85;75.25
9141;BME280;46330;50.822;7.126;2023-01-29T12:52:49;102000.16;;;2.01;75.35
9141;BME280;46330;50.822;7.126;2023-01-29T12:55:21;101995.56;;;1.71;75.29
9141;BME280;46330;50.822;7.126;2023-01-29T12:57:55;101992.00;;;1.91;74.38
9141;BME280;46330;50.822;7.126;2023-01-29T13:00:27;101986.41;;;2.02;73.44
9141;BME280;46330;50.822;7.126;2023-01-29T13:02:59;101979.56;;;2.03;74.30
9141;BME280;46330;50.822;7.126;2023-01-29T13:05:33;101975.03;;;2.20;73.00
9141;BME280;46330;50.822;7.126;2023-01-29T13:08:07;101978.81;;;2.29;72.76
9141;BME280;46330;50.822;7.126;2023-01-29T13:10:42;101973.69;;;2.31;73.48
9141;BME280;46330;50.822;7.126;2023-01-29T13:13:15;101962.63;;;2.33;74.04
9141;BME280;46330;50.822;7.126;2023-01-29T13:15:49;101962.94;;;2.18;74.21
9141;BME280;46330;50.822;7.126;2023-01-29T13:18:36;101964.06;;;2.50;73.08
9141;BME280;46330;50.822;7.126;2023-01-29T13:21:12;101962.50;;;2.30;73.08
9141;BME280;46330;50.822;7.126;2023-01-29T13:23:42;101955.03;;;2.14;73.48
9141;BME280;46330;50.822;7.126;2023-01-29T13:26:16;101956.66;;;2.12;73.18
9141;BME280;46330;50.822;7.126;2023-01-29T13:28:46;101955.78;;;2.35;74.45
9141;BME280;46330;50.822;7.126;2023-01-29T13:31:22;101953.50;;;2.43;72.98
9141;BME280;46330;50.822;7.126;2023-01-29T13:33:53;101951.53;;;2.61;71.79
9141;BME280;46330;50.822;7.126;2023-01-29T13:36:24;101937.13;;;2.42;73.30
9141;BME280;46330;50.822;7.126;2023-01-29T13:38:59;101941.44;;;2.43;73.55
9141;BME280;46330;50.822;7.126;2023-01-29T13:41:36;101935.84;;;2.55;73.18
9141;BME280;46330;50.822;7.126;2023-01-29T13:44:16;101929.06;;;2.58;72.39
9141;BME280;46330;50.822;7.126;2023-01-29T13:46:48;101924.31;;;2.70;72.91